Time;durP1;ratioP1;P1;durP2;ratioP2;P2;SDS_P1;SDS_P2;PMS_P1;PMS_P2;Temp;Humidity;BMP_temperature;BMP_pressure;BME280_temperature;BME280_humidity;BME280_pressure;Samples;Min_cycle;Max_cycle;Signal;HPM_P1;HPM_P2
2022/05/15 00:02:45;;;;;;;0.40;0.40;;;7.90;99.90;;;;;;5046328;28;20064;-75
2022/05/15 00:05:11;;;;;;;0.50;0.50;;;7.80;99.90;;;;;;5031251;28;20044;-75
2022/05/15 00:07:37;;;;;;;0.40;0.40;;;7.80;99.90;;;;;;5065575;28;20105;-73
2022/05/15 00:10:05;;;;;;;0.50;0.50;;;7.80;99.90;;;;;;5051269;28;20047;-75
2022/05/15 00:12:31;;;;;;;0.57;0.57;;;7.80;99.90;;;;;;5050601;28;20093;-75
2022/05/15 00:14:57;;;;;;;0.50;0.50;;;7.80;99.90;;;;;;5064819;28;20077;-77
2022/05/15 00:17:22;;;;;;;0.40;0.40;;;7.70;99.90;;;;;;5062396;28;20045;-75
2022/05/15 00:19:48;;;;;;;0.52;0.52;;;7.70;99.90;;;;;;5065188;28;20462;-74
2022/05/15 00:22:14;;;;;;;0.50;0.50;;;7.70;99.90;;;;;;5065210;28;20107;-73
2022/05/15 00:24:40;;;;;;;0.40;0.40;;;7.70;99.90;;;;;;5048510;28;20049;-74
2022/05/15 00:27:06;;;;;;;0.30;0.30;;;7.70;99.90;;;;;;5046352;28;20045;-75
2022/05/15 00:29:32;;;;;;;0.50;0.50;;;7.60;99.90;;;;;;5030708;28;20079;-75
2022/05/15 00:31:58;;;;;;;0.35;0.35;;;7.60;99.90;;;;;;5055869;28;20041;-74
2022/05/15 00:34:24;;;;;;;0.45;0.45;;;7.60;99.90;;;;;;5047241;28;20037;-74
2022/05/15 00:36:50;;;;;;;0.40;0.40;;;7.60;99.90;;;;;;5051948;28;20453;-74
2022/05/15 00:39:17;;;;;;;0.45;0.45;;;7.50;99.90;;;;;;5052563;28;20076;-74
2022/05/15 00:41:43;;;;;;;0.40;0.40;;;7.50;99.90;;;;;;5064301;28;20128;-74
2022/05/15 00:44:10;;;;;;;0.40;0.40;;;7.50;99.90;;;;;;5047958;28;20044;-73
2022/05/15 00:46:39;;;;;;;0.40;0.40;;;7.40;99.90;;;;;;5054314;28;20041;-74
2022/05/15 00:49:09;;;;;;;0.40;0.40;;;7.40;99.90;;;;;;5023628;28;20445;-74
2022/05/15 00:51:40;;;;;;;0.45;0.45;;;7.40;99.90;;;;;;5059811;28;20451;-74
2022/05/15 00:54:32;;;;;;;0.40;0.40;;;7.40;99.90;;;;;;5054674;28;20486;-74
2022/05/15 00:57:09;;;;;;;0.35;0.35;;;7.40;99.90;;;;;;5044298;28;20045;-75
2022/05/15 00:59:49;;;;;;;0.32;0.32;;;7.30;99.90;;;;;;5047776;28;20037;-75
2022/05/15 01:02:15;;;;;;;0.50;0.50;;;7.30;99.90;;;;;;5060042;28;20143;-73
2022/05/15 01:04:41;;;;;;;0.55;0.55;;;7.30;99.90;;;;;;5053501;28;20119;-76
2022/05/15 01:07:07;;;;;;;0.57;0.57;;;7.40;99.90;;;;;;5055103;28;20041;-74
2022/05/15 01:09:33;;;;;;;0.40;0.40;;;7.30;99.90;;;;;;5057226;28;20053;-77
2022/05/15 01:12:01;;;;;;;0.50;0.50;;;7.20;99.90;;;;;;5058509;28;20036;-74
2022/05/15 01:14:27;;;;;;;0.47;0.47;;;7.30;99.90;;;;;;5060670;28;20046;-75
2022/05/15 01:16:53;;;;;;;0.40;0.40;;;7.20;99.90;;;;;;5059509;28;20044;-76
2022/05/15 01:19:29;;;;;;;0.50;0.50;;;7.10;99.90;;;;;;5070188;28;20102;-75
2022/05/15 01:21:57;;;;;;;0.50;0.50;;;7.20;99.90;;;;;;5036388;28;20094;-73
2022/05/15 01:24:24;;;;;;;0.50;0.50;;;7.10;99.90;;;;;;5069776;28;20079;-73
2022/05/15 01:26:50;;;;;;;0.38;0.38;;;7.20;99.90;;;;;;5026403;28;20049;-75
2022/05/15 01:29:16;;;;;;;0.60;0.60;;;7.20;99.90;;;;;;5052280;28;20056;-75
2022/05/15 01:31:42;;;;;;;0.50;0.50;;;7.20;99.90;;;;;;5044328;28;20049;-74
2022/05/15 01:34:10;;;;;;;0.40;0.40;;;7.10;99.90;;;;;;5058675;28;20043;-75
2022/05/15 01:36:36;;;;;;;0.50;0.50;;;7.10;99.90;;;;;;5044826;28;20133;-75
2022/05/15 01:39:04;;;;;;;0.40;0.40;;;7.10;99.90;;;;;;5058839;28;20048;-74
2022/05/15 01:41:30;;;;;;;0.50;0.50;;;7.10;99.90;;;;;;5063166;28;20056;-73
2022/05/15 01:43:55;;;;;;;0.40;0.40;;;7.10;99.90;;;;;;5050217;28;20541;-75
2022/05/15 01:46:23;;;;;;;0.40;0.40;;;7.00;99.90;;;;;;5029645;28;20100;-75
2022/05/15 01:48:53;;;;;;;0.40;0.40;;;7.10;99.90;;;;;;5055885;28;20082;-75
2022/05/15 01:51:20;;;;;;;0.40;0.40;;;7.10;99.90;;;;;;5038608;28;20076;-75
2022/05/15 01:53:46;;;;;;;0.55;0.55;;;7.10;99.90;;;;;;5058697;28;20044;-74
2022/05/15 01:56:12;;;;;;;0.50;0.50;;;7.00;99.90;;;;;;5038835;28;20114;-76
2022/05/15 01:58:38;;;;;;;0.50;0.50;;;7.00;99.90;;;;;;5056663;28;20449;-75
2022/05/15 02:01:04;;;;;;;;;;;7.10;99.90;;;;;;5060917;28;20107;-73
2022/05/15 02:03:30;;;;;;;0.40;0.40;;;7.00;99.90;;;;;;5062872;28;19917;-74
2022/05/15 02:05:56;;;;;;;0.40;0.40;;;6.90;99.90;;;;;;5067855;28;20059;-75
2022/05/15 02:08:22;;;;;;;0.40;0.40;;;6.90;99.90;;;;;;5066253;28;20533;-75
2022/05/15 02:10:48;;;;;;;0.35;0.35;;;6.90;99.90;;;;;;5051295;28;20067;-76
2022/05/15 02:13:15;;;;;;;0.60;0.60;;;6.80;99.90;;;;;;5065468;28;20128;-74
2022/05/15 02:15:41;;;;;;;0.40;0.40;;;6.80;99.90;;;;;;5067552;28;20037;-74
2022/05/15 02:18:06;;;;;;;;;;;6.80;99.90;;;;;;5053482;28;20044;-74
2022/05/15 02:20:32;;;;;;;0.43;0.43;;;6.70;99.90;;;;;;5052108;28;20281;-75
2022/05/15 02:22:58;;;;;;;0.57;0.57;;;6.60;99.90;;;;;;5066945;28;20045;-74
2022/05/15 02:25:24;;;;;;;0.40;0.40;;;6.60;99.90;;;;;;5059062;28;20045;-74
2022/05/15 02:27:49;;;;;;;0.40;0.40;;;6.60;99.90;;;;;;5050693;28;20580;-74
2022/05/15 02:30:17;;;;;;;0.47;0.47;;;6.50;99.90;;;;;;5058096;28;20183;-74
2022/05/15 02:32:44;;;;;;;0.50;0.50;;;6.50;99.90;;;;;;5054206;28;20481;-75
2022/05/15 02:35:10;;;;;;;0.40;0.40;;;6.40;99.90;;;;;;5057683;28;20076;-75
2022/05/15 02:37:37;;;;;;;0.40;0.40;;;6.40;99.90;;;;;;5032699;28;20056;-75
2022/05/15 02:40:05;;;;;;;0.40;0.40;;;6.40;99.90;;;;;;5057416;28;20053;-73
2022/05/15 02:42:31;;;;;;;0.40;0.40;;;6.50;99.90;;;;;;5031820;28;20045;-75
2022/05/15 02:44:57;;;;;;;;;;;6.40;99.90;;;;;;5057292;28;20077;-74
2022/05/15 02:47:24;;;;;;;0.60;0.60;;;6.30;99.90;;;;;;5050683;28;19968;-75
2022/05/15 02:52:33;;;;;;;0.60;0.60;;;6.30;99.90;;;;;;5050585;28;20072;-74
2022/05/15 02:54:59;;;;;;;0.40;0.40;;;6.30;99.90;;;;;;5038367;28;20069;-74
2022/05/15 02:57:25;;;;;;;0.50;0.50;;;6.30;99.90;;;;;;5047381;28;20418;-75
2022/05/15 02:59:51;;;;;;;0.50;0.50;;;6.30;99.90;;;;;;5060657;28;20049;-74
2022/05/15 03:02:17;;;;;;;0.50;0.50;;;6.30;99.90;;;;;;5044034;28;20547;-75
2022/05/15 03:04:43;;;;;;;;;;;6.20;99.90;;;;;;5066011;28;20095;-75
2022/05/15 03:07:09;;;;;;;0.70;0.70;;;6.20;99.90;;;;;;5052131;28;19920;-75
2022/05/15 03:09:35;;;;;;;0.43;0.43;;;6.20;99.90;;;;;;5017643;28;20051;-73
2022/05/15 03:12:00;;;;;;;0.60;0.60;;;6.20;99.90;;;;;;5050099;28;20091;-75
2022/05/15 03:14:26;;;;;;;0.60;0.60;;;6.10;99.90;;;;;;5050910;28;20041;-74
2022/05/15 03:16:52;;;;;;;0.47;0.47;;;6.10;99.90;;;;;;5054179;28;20048;-74
2022/05/15 03:19:18;;;;;;;0.57;0.57;;;6.10;99.90;;;;;;5034362;28;20104;-75
2022/05/15 03:21:43;;;;;;;0.60;0.60;;;6.10;99.90;;;;;;5034129;28;20383;-74
2022/05/15 03:24:13;;;;;;;0.50;0.50;;;6.10;99.90;;;;;;5034239;28;20061;-74
2022/05/15 03:26:45;;;;;;;0.40;0.40;;;6.00;99.90;;;;;;5035979;28;20056;-74
2022/05/15 03:29:13;;;;;;;0.57;0.57;;;6.00;99.90;;;;;;5028286;28;20037;-74
2022/05/15 03:31:40;;;;;;;0.50;0.50;;;6.00;99.90;;;;;;5021701;28;20113;-76
2022/05/15 03:34:10;;;;;;;0.50;0.50;;;6.00;99.90;;;;;;5053336;28;20325;-75
2022/05/15 03:36:37;;;;;;;0.65;0.65;;;6.00;99.90;;;;;;5028090;28;20594;-75
2022/05/15 03:39:06;;;;;;;0.52;0.52;;;6.00;99.90;;;;;;5053485;28;20037;-75
2022/05/15 03:41:33;;;;;;;0.52;0.52;;;6.00;99.90;;;;;;5057642;28;20041;-76
2022/05/15 03:43:59;;;;;;;0.50;0.50;;;6.00;99.90;;;;;;5036595;28;20033;-74
2022/05/15 03:46:24;;;;;;;0.47;0.47;;;6.00;99.90;;;;;;5056333;28;20135;-75
2022/05/15 03:48:52;;;;;;;0.60;0.60;;;6.00;99.90;;;;;;5048069;28;20141;-75
2022/05/15 03:51:18;;;;;;;0.60;0.60;;;6.00;99.90;;;;;;5056096;28;20140;-74
2022/05/15 03:53:44;;;;;;;0.50;0.50;;;6.00;99.90;;;;;;5031538;28;20119;-75
2022/05/15 03:56:10;;;;;;;0.68;0.68;;;6.00;99.90;;;;;;5033613;28;20056;-75
2022/05/15 03:58:37;;;;;;;0.52;0.52;;;6.00;99.90;;;;;;5036160;28;20098;-76
2022/05/15 04:01:04;;;;;;;0.50;0.50;;;6.00;99.90;;;;;;5059236;28;20435;-75
2022/05/15 04:03:31;;;;;;;0.60;0.60;;;6.00;99.90;;;;;;5060139;28;20040;-76
2022/05/15 04:05:57;;;;;;;;;;;6.00;99.90;;;;;;5034145;28;20049;-75
2022/05/15 04:08:24;;;;;;;0.60;0.60;;;6.10;99.90;;;;;;5016791;28;19920;-75
2022/05/15 04:10:49;;;;;;;0.65;0.65;;;6.10;99.90;;;;;;5017692;28;20106;-73
2022/05/15 04:13:15;;;;;;;0.70;0.70;;;6.10;99.90;;;;;;5046993;28;20441;-74
2022/05/15 04:15:41;;;;;;;0.70;0.70;;;6.20;99.90;;;;;;5032535;28;20099;-73
2022/05/15 04:18:09;;;;;;;;;;;6.20;99.90;;;;;;5051153;28;20057;-75
2022/05/15 04:20:34;;;;;;;;;;;6.20;99.90;;;;;;5050290;28;19966;-75
2022/05/15 04:23:00;;;;;;;0.60;0.60;;;6.30;99.90;;;;;;5049384;28;19960;-74
2022/05/15 04:25:26;;;;;;;0.70;0.70;;;6.30;99.90;;;;;;5056680;28;20466;-74
2022/05/15 04:27:52;;;;;;;0.60;0.60;;;6.40;99.90;;;;;;5047133;28;20072;-75
2022/05/15 04:30:23;;;;;;;0.60;0.60;;;6.50;99.90;;;;;;5056317;28;20115;-75
2022/05/15 04:32:48;;;;;;;0.60;0.60;;;6.60;99.90;;;;;;5052498;28;20075;-75
2022/05/15 04:35:14;;;;;;;0.85;0.85;;;6.70;99.90;;;;;;5030550;28;20037;-75
2022/05/15 04:37:40;;;;;;;;;;;6.70;99.90;;;;;;5031361;28;20098;-74
2022/05/15 04:40:09;;;;;;;0.60;0.60;;;6.80;99.90;;;;;;5048468;28;20350;-75
2022/05/15 04:42:35;;;;;;;0.60;0.60;;;6.90;99.90;;;;;;5047544;28;20103;-73
2022/05/15 04:45:02;;;;;;;0.40;0.40;;;7.00;99.90;;;;;;5039306;28;20617;-74
2022/05/15 04:47:28;;;;;;;0.50;0.50;;;7.10;99.90;;;;;;5049313;28;20057;-76
2022/05/15 04:49:55;;;;;;;0.70;0.70;;;7.20;99.90;;;;;;5026168;28;20041;-73
2022/05/15 04:52:20;;;;;;;0.40;0.40;;;7.30;99.90;;;;;;5048168;28;20041;-75
2022/05/15 04:54:46;;;;;;;0.50;0.50;;;7.40;99.90;;;;;;5047583;28;20375;-75
2022/05/15 04:57:12;;;;;;;0.50;0.50;;;7.40;99.90;;;;;;5047715;28;20061;-74
2022/05/15 04:59:37;;;;;;;0.77;0.77;;;7.50;99.90;;;;;;5056787;28;20045;-75
2022/05/15 05:02:03;;;;;;;0.50;0.50;;;7.70;99.90;;;;;;5040478;28;20379;-75
2022/05/15 05:04:29;;;;;;;0.40;0.40;;;7.80;99.90;;;;;;5062106;28;20041;-75
2022/05/15 05:06:55;;;;;;;0.40;0.40;;;7.90;99.90;;;;;;5033179;28;20399;-76
2022/05/15 05:09:21;;;;;;;0.35;0.35;;;8.00;99.90;;;;;;5048820;28;20045;-74
2022/05/15 05:11:46;;;;;;;0.40;0.40;;;8.10;99.90;;;;;;5063602;28;20116;-75
2022/05/15 05:14:12;;;;;;;0.40;0.40;;;8.20;99.90;;;;;;5049992;28;20152;-77
2022/05/15 05:16:38;;;;;;;0.47;0.47;;;8.40;99.90;;;;;;5060751;28;20072;-75
2022/05/15 05:19:04;;;;;;;0.40;0.40;;;8.40;99.90;;;;;;5047814;28;20032;-76
2022/05/15 05:21:31;;;;;;;0.40;0.40;;;8.60;99.90;;;;;;5062930;28;20041;-75
2022/05/15 05:23:57;;;;;;;0.47;0.47;;;8.60;99.90;;;;;;5065783;28;20124;-75
2022/05/15 05:26:23;;;;;;;0.40;0.40;;;8.80;99.90;;;;;;5031454;28;20124;-74
2022/05/15 05:28:48;;;;;;;0.40;0.40;;;8.80;99.90;;;;;;5044408;28;20037;-74
2022/05/15 05:31:14;;;;;;;0.50;0.50;;;8.90;99.90;;;;;;5049513;28;20582;-74
2022/05/15 05:33:40;;;;;;;0.40;0.40;;;9.00;99.90;;;;;;5047090;28;20041;-74
2022/05/15 05:36:06;;;;;;;;;;;9.10;99.90;;;;;;5041637;28;20040;-74
2022/05/15 05:38:33;;;;;;;0.50;0.50;;;9.30;99.90;;;;;;5052396;28;19917;-76
2022/05/15 05:40:59;;;;;;;0.30;0.30;;;9.40;99.90;;;;;;5052443;28;20057;-74
2022/05/15 05:43:24;;;;;;;0.50;0.50;;;9.60;99.90;;;;;;5027692;28;20052;-75
2022/05/15 05:45:50;;;;;;;0.35;0.35;;;9.70;99.90;;;;;;5035177;28;20049;-76
2022/05/15 05:48:15;;;;;;;0.50;0.50;;;9.80;99.90;;;;;;5051881;28;20502;-74
2022/05/15 05:50:41;;;;;;;0.40;0.40;;;9.90;99.90;;;;;;5052669;28;20368;-75
2022/05/15 05:53:07;;;;;;;0.50;0.50;;;10.00;99.90;;;;;;5045574;28;20048;-75
2022/05/15 05:55:33;;;;;;;0.35;0.35;;;10.10;99.90;;;;;;5051553;28;20471;-74
2022/05/15 05:57:59;;;;;;;0.50;0.50;;;10.10;99.90;;;;;;5050233;28;20052;-74
2022/05/15 06:00:28;;;;;;;0.50;0.50;;;10.20;99.90;;;;;;5063362;28;20462;-74
2022/05/15 06:04:39;;;;;;;0.40;0.40;;;10.30;99.90;;;;;;5045715;28;20047;-76
2022/05/15 06:05:40;;;;;;;0.63;0.63;;;10.40;99.90;;;;;;5027888;28;20095;-75
2022/05/15 06:08:06;;;;;;;0.32;0.32;;;10.60;99.90;;;;;;5052358;28;20117;-74
2022/05/15 06:10:32;;;;;;;0.40;0.40;;;10.70;99.90;;;;;;5051925;28;20534;-74
2022/05/15 06:12:57;;;;;;;0.40;0.40;;;10.80;99.90;;;;;;5052454;28;20422;-74
2022/05/15 06:15:23;;;;;;;0.30;0.30;;;10.90;99.90;;;;;;5052334;28;20045;-74
2022/05/15 06:17:50;;;;;;;0.30;0.30;;;11.00;99.90;;;;;;5030916;28;20116;-74
2022/05/15 06:20:16;;;;;;;0.45;0.45;;;11.10;99.90;;;;;;5067958;28;20049;-75
2022/05/15 06:22:42;;;;;;;0.30;0.30;;;11.20;99.90;;;;;;5050901;28;20041;-75
2022/05/15 06:25:09;;;;;;;0.28;0.28;;;11.40;99.90;;;;;;5045699;28;20046;-74
2022/05/15 06:27:37;;;;;;;0.40;0.40;;;11.60;99.90;;;;;;5021170;28;20081;-75
2022/05/15 06:30:03;;;;;;;0.30;0.30;;;11.70;99.90;;;;;;5022072;28;20064;-74
2022/05/15 06:32:29;;;;;;;0.40;0.40;;;11.90;99.90;;;;;;5013007;28;20045;-74
2022/05/15 06:34:54;;;;;;;0.28;0.28;;;12.00;99.90;;;;;;5059836;28;20034;-74
2022/05/15 06:37:20;;;;;;;0.30;0.30;;;12.30;99.90;;;;;;5051780;28;20045;-75
2022/05/15 06:39:46;;;;;;;0.50;0.50;;;12.40;99.90;;;;;;5059597;28;20049;-74
2022/05/15 06:42:11;;;;;;;0.47;0.47;;;12.50;99.90;;;;;;5051044;28;20083;-74
2022/05/15 06:44:37;;;;;;;0.40;0.40;;;12.60;99.90;;;;;;5059459;28;20343;-74
2022/05/15 06:47:03;;;;;;;0.40;0.40;;;12.80;99.90;;;;;;5046633;28;20052;-72
2022/05/15 06:49:29;;;;;;;0.20;0.20;;;12.90;99.90;;;;;;5035145;28;20048;-74
2022/05/15 06:51:55;;;;;;;0.20;0.20;;;13.00;99.90;;;;;;5054246;28;20042;-76
2022/05/15 06:54:20;;;;;;;0.30;0.30;;;13.10;99.90;;;;;;5035301;28;20045;-74
2022/05/15 06:59:31;;;;;;;0.40;0.40;;;13.40;99.90;;;;;;5018951;28;20045;-74
2022/05/15 07:01:57;;;;;;;0.40;0.40;;;13.50;99.90;;;;;;5018026;28;20100;-75
2022/05/15 07:04:23;;;;;;;0.20;0.20;;;13.60;99.90;;;;;;5065900;28;20060;-73
2022/05/15 07:06:48;;;;;;;;;;;13.70;99.90;;;;;;5052307;28;20051;-75
2022/05/15 07:09:17;;;;;;;0.30;0.30;;;14.00;99.90;;;;;;5051662;28;19916;-73
2022/05/15 07:11:43;;;;;;;0.22;0.22;;;14.10;99.90;;;;;;5050596;28;20175;-73
2022/05/15 07:14:09;;;;;;;0.40;0.40;;;14.10;99.90;;;;;;5066214;28;20048;-75
2022/05/15 07:16:35;;;;;;;0.30;0.30;;;14.20;99.90;;;;;;5062502;28;20108;-74
2022/05/15 07:19:01;;;;;;;0.22;0.22;;;14.40;99.90;;;;;;5034791;28;20040;-75
2022/05/15 07:21:27;;;;;;;0.30;0.30;;;14.50;99.90;;;;;;5050538;28;20471;-74
2022/05/15 07:23:52;;;;;;;0.35;0.35;;;14.60;99.90;;;;;;5049646;28;20052;-74
2022/05/15 07:26:18;;;;;;;;;;;14.70;99.90;;;;;;5055390;28;20056;-74
2022/05/15 07:28:50;;;;;;;0.73;0.73;;;14.80;99.90;;;;;;5045310;28;19925;-74
2022/05/15 07:31:18;;;;;;;0.43;0.43;;;14.90;99.90;;;;;;5050240;28;20042;-75
2022/05/15 07:33:44;;;;;;;0.30;0.30;;;15.00;99.90;;;;;;5048951;28;20081;-75
2022/05/15 07:36:10;;;;;;;0.50;0.50;;;15.10;99.90;;;;;;5051505;28;20047;-74
2022/05/15 07:38:36;;;;;;;;;;;15.30;99.90;;;;;;5049348;28;20565;-74
2022/05/15 07:41:02;;;;;;;0.30;0.30;;;15.30;99.90;;;;;;5034239;28;19971;-75
2022/05/15 07:43:28;;;;;;;0.28;0.28;;;15.40;99.90;;;;;;5046251;28;20080;-73
2022/05/15 07:45:53;;;;;;;0.32;0.32;;;15.50;99.90;;;;;;5049973;28;20037;-75
2022/05/15 07:48:19;;;;;;;0.30;0.30;;;15.60;99.90;;;;;;5049144;28;20034;-75
2022/05/15 07:50:45;;;;;;;;;;;15.70;99.90;;;;;;5050559;28;20055;-72
2022/05/15 07:53:11;;;;;;;0.30;0.30;;;15.70;99.90;;;;;;5050237;28;20388;-76
2022/05/15 07:55:37;;;;;;;0.50;0.50;;;15.80;99.90;;;;;;5050694;28;20050;-73
2022/05/15 07:58:02;;;;;;;;;;;15.90;99.90;;;;;;5047202;28;20376;-73
2022/05/15 08:00:29;;;;;;;0.65;0.65;;;16.00;99.90;;;;;;5030180;28;19962;-74
2022/05/15 08:03:07;;;;;;;0.20;0.20;;;16.00;99.90;;;;;;5049633;28;20106;-74
2022/05/15 08:08:20;;;;;;;0.40;0.40;;;16.10;99.90;;;;;;5049962;28;20052;-74
2022/05/15 08:10:47;;;;;;;0.63;0.63;;;16.20;99.90;;;;;;5056194;28;20080;-74
2022/05/15 08:13:16;;;;;;;0.20;0.20;;;16.30;99.90;;;;;;5029964;28;20127;-73
2022/05/15 08:15:44;;;;;;;0.38;0.38;;;16.40;99.90;;;;;;5050182;28;20378;-73
2022/05/15 08:23:46;;;;;;;0.40;0.40;;;16.70;99.90;;;;;;5030983;28;20406;-76
2022/05/15 08:26:12;;;;;;;0.30;0.30;;;16.70;99.90;;;;;;5053581;28;20098;-75
2022/05/15 08:28:38;;;;;;;;;;;16.80;99.90;;;;;;5051060;28;20033;-74
2022/05/15 08:31:06;;;;;;;0.40;0.40;;;16.90;99.90;;;;;;5047939;28;20011;-75
2022/05/15 08:33:33;;;;;;;0.30;0.30;;;17.10;99.90;;;;;;5055428;28;20057;-74
2022/05/15 08:35:58;;;;;;;0.30;0.30;;;17.10;99.90;;;;;;5046183;28;20052;-75
2022/05/15 08:38:25;;;;;;;;;;;17.10;99.90;;;;;;5055333;28;20041;-73
2022/05/15 08:41:20;;;;;;;0.30;0.30;;;17.10;99.90;;;;;;5047337;28;20377;-74
2022/05/15 08:44:29;;;;;;;0.20;0.20;;;17.20;99.90;;;;;;5010022;28;20053;-73
2022/05/15 08:47:14;;;;;;;0.32;0.32;;;17.20;99.90;;;;;;5052152;28;20046;-75
2022/05/15 08:49:44;;;;;;;0.35;0.35;;;17.40;99.90;;;;;;5049854;28;20729;-74
2022/05/15 08:52:37;;;;;;;0.30;0.30;;;17.40;99.90;;;;;;5037354;28;20458;-74
2022/05/15 08:55:16;;;;;;;0.30;0.30;;;17.50;99.90;;;;;;5052591;28;20127;-75
2022/05/15 08:57:54;;;;;;;0.40;0.40;;;17.50;99.90;;;;;;5053715;28;20057;-73
2022/05/15 09:00:38;;;;;;;0.50;0.50;;;17.60;99.90;;;;;;5033614;28;20041;-76
2022/05/15 09:03:24;;;;;;;0.22;0.22;;;17.70;99.90;;;;;;5040104;28;20485;-74
2022/05/15 09:05:55;;;;;;;0.38;0.38;;;17.70;99.90;;;;;;5029304;28;20041;-74
2022/05/15 09:08:33;;;;;;;0.20;0.20;;;17.80;99.90;;;;;;5032638;28;20048;-74
2022/05/15 09:11:06;;;;;;;0.35;0.35;;;17.90;99.90;;;;;;5069092;28;20072;-75
2022/05/15 09:13:37;;;;;;;0.30;0.30;;;18.00;99.90;;;;;;5035672;28;20045;-73
2022/05/15 09:16:04;;;;;;;0.30;0.30;;;18.10;99.90;;;;;;5065603;28;20042;-73
2022/05/15 09:18:34;;;;;;;0.32;0.32;;;18.30;99.90;;;;;;5056720;28;20040;-73
2022/05/15 09:21:09;;;;;;;0.30;0.30;;;18.30;99.90;;;;;;5052904;28;20056;-75
2022/05/15 09:23:42;;;;;;;0.20;0.20;;;18.40;99.90;;;;;;5035827;28;20372;-74
2022/05/15 09:26:16;;;;;;;0.30;0.30;;;18.50;99.90;;;;;;5039584;28;20048;-74
2022/05/15 09:28:45;;;;;;;0.30;0.30;;;18.70;99.90;;;;;;5053221;28;20041;-74
2022/05/15 09:31:30;;;;;;;0.57;0.57;;;18.70;99.90;;;;;;5051535;28;20099;-75
2022/05/15 09:34:04;;;;;;;0.35;0.35;;;18.70;99.90;;;;;;5056125;28;20435;-75
2022/05/15 09:36:42;;;;;;;0.30;0.30;;;18.70;99.90;;;;;;5051273;28;20450;-73
2022/05/15 09:39:26;;;;;;;0.20;0.20;;;18.60;99.90;;;;;;5049335;28;20469;-73
2022/05/15 09:44:45;;;;;;;0.30;0.30;;;18.70;99.90;;;;;;5043077;28;20497;-75
2022/05/15 09:47:20;;;;;;;;;;;18.70;99.90;;;;;;5056540;28;20098;-75
2022/05/15 09:49:46;;;;;;;0.30;0.30;;;18.80;99.90;;;;;;5041979;28;20281;-74
2022/05/15 09:52:35;;;;;;;0.20;0.20;;;18.90;99.90;;;;;;5033546;28;20052;-75
2022/05/15 09:55:19;;;;;;;1.00;0.80;;;19.00;99.90;;;;;;5051849;28;20475;-75
2022/05/15 09:58:00;;;;;;;0.20;0.20;;;19.00;99.90;;;;;;5043709;28;20594;-74
2022/05/15 10:00:28;;;;;;;0.25;0.25;;;19.10;99.90;;;;;;5048977;28;20053;-75
2022/05/15 10:03:03;;;;;;;0.30;0.30;;;19.20;99.90;;;;;;5046192;28;20045;-75
2022/05/15 10:05:34;;;;;;;0.30;0.30;;;19.30;98.60;;;;;;5051234;28;20056;-74
2022/05/15 10:08:23;;;;;;;0.40;0.40;;;19.30;99.60;;;;;;5034964;28;20041;-75
2022/05/15 10:10:56;;;;;;;0.30;0.30;;;19.30;97.20;;;;;;5017590;28;20191;-73
2022/05/15 10:13:52;;;;;;;0.30;0.30;;;19.30;98.60;;;;;;5032572;28;20044;-75
2022/05/15 10:16:21;;;;;;;0.30;0.30;;;;;;;;;;5064912;28;20044;-76
2022/05/15 10:18:54;;;;;;;0.73;0.73;;;19.40;98.20;;;;;;5053456;28;20052;-74
2022/05/15 10:21:24;;;;;;;0.30;0.30;;;19.50;97.00;;;;;;5052870;28;20028;-75
2022/05/15 10:23:56;;;;;;;0.50;0.50;;;19.50;98.10;;;;;;5056255;28;20107;-73
2022/05/15 10:26:27;;;;;;;0.22;0.22;;;19.50;99.50;;;;;;5023801;28;20045;-75
2022/05/15 10:29:22;;;;;;;0.20;0.20;;;19.60;97.50;;;;;;5033812;28;20041;-74
2022/05/15 10:31:52;;;;;;;0.22;0.22;;;19.70;98.50;;;;;;5042281;28;20468;-74
2022/05/15 10:34:25;;;;;;;0.30;0.30;;;19.80;95.90;;;;;;5064162;28;20430;-74
2022/05/15 10:37:11;;;;;;;0.30;0.30;;;19.70;96.60;;;;;;5026877;28;20048;-74
2022/05/15 10:40:45;;;;;;;0.20;0.20;;;19.70;97.90;;;;;;5039683;28;20468;-74
2022/05/15 10:43:30;;;;;;;0.20;0.20;;;19.90;99.10;;;;;;4946435;28;20054;-75
2022/05/15 10:46:33;;;;;;;0.20;0.20;;;20.20;94.00;;;;;;4986573;28;20736;-73
2022/05/15 10:49:25;;;;;;;0.30;0.30;;;20.30;94.00;;;;;;5051109;28;20052;-74
2022/05/15 10:52:23;;;;;;;0.30;0.30;;;20.40;92.10;;;;;;5054882;28;20068;-75
2022/05/15 10:58:25;;;;;;;0.20;0.20;;;20.70;95.90;;;;;;4984211;28;20461;-74
2022/05/15 11:00:54;;;;;;;0.30;0.30;;;20.80;93.10;;;;;;5025889;28;20041;-74
2022/05/15 11:03:23;;;;;;;0.20;0.20;;;20.90;93.30;;;;;;5046769;28;20061;-75
2022/05/15 11:06:13;;;;;;;0.30;0.30;;;21.00;94.20;;;;;;5066400;28;20051;-76
2022/05/15 11:09:07;;;;;;;0.30;0.30;;;21.10;93.00;;;;;;5050964;28;20051;-75
2022/05/15 11:11:59;;;;;;;1.08;1.05;;;21.20;91.10;;;;;;5064946;28;20048;-76
2022/05/15 11:14:39;;;;;;;0.30;0.30;;;21.10;86.70;;;;;;5066412;28;20044;-77
2022/05/15 11:17:09;;;;;;;0.30;0.30;;;21.10;83.30;;;;;;5048037;28;20128;-75
2022/05/15 11:19:41;;;;;;;0.85;0.43;;;21.00;82.20;;;;;;5034527;28;20382;-75
2022/05/15 11:22:26;;;;;;;0.30;0.30;;;21.10;90.80;;;;;;5051692;28;20048;-74
2022/05/15 11:24:59;;;;;;;0.20;0.20;;;21.30;90.40;;;;;;5061113;28;20049;-75
2022/05/15 11:27:43;;;;;;;0.30;0.30;;;21.40;82.60;;;;;;5047941;28;20057;-75
2022/05/15 11:30:14;;;;;;;0.22;0.22;;;21.50;84.10;;;;;;5040136;28;20043;-76
2022/05/15 11:33:00;;;;;;;0.30;0.30;;;21.50;76.10;;;;;;5053453;28;20036;-74
2022/05/15 11:35:41;;;;;;;0.20;0.20;;;21.50;83.30;;;;;;5026507;28;20107;-75
2022/05/15 11:38:28;;;;;;;0.30;0.30;;;21.80;88.00;;;;;;5020890;28;20474;-74
2022/05/15 11:40:55;;;;;;;0.20;0.20;;;22.00;87.80;;;;;;5053675;28;20390;-75
2022/05/15 11:43:33;;;;;;;0.30;0.30;;;22.20;79.00;;;;;;5054346;28;20045;-75
2022/05/15 11:46:09;;;;;;;0.50;0.50;;;22.40;80.70;;;;;;5048012;28;20502;-76
2022/05/15 11:48:41;;;;;;;0.22;0.22;;;22.40;78.30;;;;;;5051558;28;20474;-74
2022/05/15 11:51:16;;;;;;;0.30;0.30;;;22.60;77.80;;;;;;5057307;28;20060;-76
2022/05/15 11:53:59;;;;;;;0.10;0.10;;;22.70;77.80;;;;;;5052754;28;20075;-76
2022/05/15 11:56:27;;;;;;;0.10;0.10;;;22.90;69.50;;;;;;5053408;28;20514;-73
2022/05/15 11:59:18;;;;;;;0.10;0.10;;;23.00;69.30;;;;;;5036353;28;20049;-76
2022/05/15 12:01:52;;;;;;;0.20;0.20;;;23.00;68.40;;;;;;5011577;28;20053;-76
2022/05/15 12:04:17;;;;;;;0.20;0.20;;;23.10;73.20;;;;;;5063028;28;20120;-75
2022/05/15 12:06:55;;;;;;;0.20;0.20;;;23.20;70.60;;;;;;5051463;28;20091;-74
2022/05/15 12:09:26;;;;;;;0.28;0.28;;;23.10;66.70;;;;;;5066490;28;20134;-75
2022/05/15 12:11:57;;;;;;;0.10;0.10;;;23.00;71.80;;;;;;5064830;28;20052;-75
2022/05/15 12:14:25;;;;;;;0.20;0.20;;;23.00;71.80;;;;;;5066145;28;20059;-75
2022/05/15 12:17:23;;;;;;;0.57;0.57;;;23.10;66.90;;;;;;5056697;28;20045;-77
2022/05/15 12:19:50;;;;;;;0.20;0.20;;;23.20;67.50;;;;;;5048634;28;20171;-74
2022/05/15 12:22:17;;;;;;;0.20;0.20;;;23.30;71.80;;;;;;5049895;28;20124;-75
2022/05/15 12:24:48;;;;;;;0.10;0.10;;;23.60;66.30;;;;;;5048394;28;20072;-75
2022/05/15 12:27:21;;;;;;;0.20;0.20;;;23.70;71.20;;;;;;5046378;28;20064;-75
2022/05/15 12:30:08;;;;;;;0.20;0.20;;;23.80;67.40;;;;;;5024982;28;20073;-76
2022/05/15 12:32:37;;;;;;;0.10;0.10;;;24.00;66.70;;;;;;5061515;28;20053;-75
2022/05/15 12:35:10;;;;;;;0.20;0.20;;;24.20;67.80;;;;;;5031289;28;20037;-75
2022/05/15 12:37:54;;;;;;;0.30;0.30;;;24.40;63.50;;;;;;5030596;28;20049;-74
2022/05/15 12:40:31;;;;;;;0.20;0.20;;;24.30;66.90;;;;;;5052998;28;20048;-76
2022/05/15 12:42:58;;;;;;;0.10;0.10;;;24.10;62.30;;;;;;5047080;28;20079;-74
2022/05/15 12:45:25;;;;;;;0.15;0.15;;;24.10;64.20;;;;;;5049984;28;20518;-75
2022/05/15 12:48:11;;;;;;;0.20;0.20;;;24.10;63.70;;;;;;5056732;28;20140;-76
2022/05/15 12:51:09;;;;;;;0.30;0.30;;;24.30;64.90;;;;;;5033048;28;20398;-76
2022/05/15 12:53:50;;;;;;;0.30;0.30;;;24.60;64.90;;;;;;5052918;28;20049;-73
2022/05/15 12:56:25;;;;;;;0.10;0.10;;;25.00;65.80;;;;;;5049122;28;20049;-74
2022/05/15 12:58:54;;;;;;;0.20;0.20;;;25.50;62.90;;;;;;5035657;28;20475;-75
2022/05/15 13:01:31;;;;;;;0.10;0.10;;;25.70;64.80;;;;;;5039298;28;20414;-74
2022/05/15 13:04:01;;;;;;;0.22;0.22;;;25.90;66.80;;;;;;5046894;28;20064;-75
2022/05/15 13:06:38;;;;;;;0.30;0.30;;;26.00;59.40;;;;;;5064745;28;20562;-76
2022/05/15 13:09:09;;;;;;;0.00;0.00;;;26.00;62.70;;;;;;5064122;28;20063;-75
2022/05/15 13:11:50;;;;;;;0.10;0.10;;;25.80;60.50;;;;;;5050774;28;20513;-75
2022/05/15 13:14:28;;;;;;;0.10;0.10;;;26.00;72.70;;;;;;5052175;28;20064;-75
2022/05/15 13:16:55;;;;;;;0.08;0.08;;;26.40;60.50;;;;;;5045846;28;20080;-76
2022/05/15 13:19:33;;;;;;;0.10;0.10;;;26.50;61.80;;;;;;5059161;28;20129;-75
2022/05/15 13:22:00;;;;;;;0.10;0.10;;;26.60;69.40;;;;;;5064753;28;20120;-75
2022/05/15 13:24:27;;;;;;;0.00;0.00;;;26.70;57.10;;;;;;5049106;28;20120;-75
2022/05/15 13:26:54;;;;;;;0.17;0.17;;;26.70;57.80;;;;;;5047089;28;20045;-74
2022/05/15 13:29:23;;;;;;;0.30;0.30;;;26.70;58.60;;;;;;5057849;28;20506;-76
2022/05/15 13:31:52;;;;;;;0.10;0.10;;;26.40;62.00;;;;;;5049267;28;20084;-75
2022/05/15 13:34:28;;;;;;;0.20;0.20;;;26.20;59.00;;;;;;5048832;28;20419;-75